Time;durP1;ratioP1;P1;durP2;ratioP2;P2;SDS_P1;SDS_P2;PMS_P1;PMS_P2;Temp;Humidity;BMP_temperature;BMP_pressure;BME280_temperature;BME280_humidity;BME280_pressure;Samples;Min_cycle;Max_cycle;Signal;HPM_P1;HPM_P2
2024/01/27 00:00:27;;;;;;;5.15;2.38;;;6.50;64.50;8.30;103211.00;;;;5010903;28;20197;-75
2024/01/27 00:02:54;;;;;;;3.58;2.00;;;6.50;64.60;8.30;103209.00;;;;5011591;28;20567;-75
2024/01/27 00:05:21;;;;;;;6.57;2.38;;;6.50;64.70;8.30;103207.00;;;;5009483;28;20201;-75
2024/01/27 00:07:50;;;;;;;5.15;3.00;;;6.40;64.70;8.20;103203.00;;;;4992225;28;20200;-75
2024/01/27 00:10:18;;;;;;;3.40;1.52;;;6.40;64.70;8.30;103213.00;;;;5011086;28;20577;-75
2024/01/27 00:12:45;;;;;;;5.00;1.92;;;6.40;64.70;8.30;103200.00;;;;5010061;28;20674;-75
2024/01/27 00:15:12;;;;;;;4.80;2.03;;;6.40;64.70;8.30;103214.00;;;;5000666;28;20234;-75
2024/01/27 00:17:39;;;;;;;4.68;2.15;;;6.40;64.60;8.30;103218.00;;;;5006507;28;20658;-75
2024/01/27 00:20:08;;;;;;;6.80;2.58;;;6.40;64.60;8.20;103215.00;;;;5010954;28;20209;-76
2024/01/27 00:22:35;;;;;;;8.98;2.78;;;6.40;64.70;8.20;103212.00;;;;5003388;28;20229;-76
2024/01/27 00:25:04;;;;;;;9.27;3.22;;;6.40;64.70;8.20;103213.00;;;;5012002;28;20203;-76
2024/01/27 00:27:32;;;;;;;3.67;2.38;;;6.40;64.70;8.20;103217.00;;;;5014945;28;20312;-76
2024/01/27 00:29:59;;;;;;;7.15;2.63;;;6.40;64.60;8.20;103223.00;;;;5015856;28;20296;-75
2024/01/27 00:32:26;;;;;;;5.53;2.85;;;6.30;64.50;8.20;103216.00;;;;5014567;28;20812;-75
2024/01/27 00:34:53;;;;;;;5.82;3.38;;;6.30;64.60;8.20;103217.00;;;;5010297;28;20224;-75
2024/01/27 00:37:20;;;;;;;5.78;2.17;;;6.30;64.50;8.20;103213.00;;;;4995679;28;20209;-75
2024/01/27 00:39:47;;;;;;;5.50;2.40;;;6.30;64.50;8.10;103216.00;;;;4995330;28;20290;-75
2024/01/27 00:42:16;;;;;;;5.30;2.45;;;6.30;64.60;8.10;103204.00;;;;4995910;28;20641;-75
2024/01/27 00:44:43;;;;;;;5.70;2.45;;;6.20;64.60;8.10;103205.00;;;;4997396;28;20209;-75
2024/01/27 00:47:10;;;;;;;4.72;1.98;;;6.20;64.60;8.10;103204.00;;;;5014497;28;20197;-75
2024/01/27 00:49:37;;;;;;;7.07;2.55;;;6.20;64.60;8.10;103208.00;;;;5015145;28;20227;-75
2024/01/27 00:52:05;;;;;;;3.85;1.73;;;6.20;64.50;8.10;103213.00;;;;5014901;28;20690;-76
2024/01/27 00:54:32;;;;;;;6.03;2.67;;;6.20;64.50;8.10;103222.00;;;;5014431;28;20658;-76
2024/01/27 00:56:59;;;;;;;5.75;2.08;;;6.20;64.60;8.00;103217.00;;;;5014127;28;20209;-76
2024/01/27 00:59:27;;;;;;;6.60;1.80;;;6.20;64.70;8.00;103215.00;;;;5000158;28;20883;-76
2024/01/27 01:01:55;;;;;;;3.80;1.80;;;6.20;64.80;8.00;103208.00;;;;4994881;28;20236;-75
2024/01/27 01:04:22;;;;;;;4.70;1.73;;;6.10;64.80;8.00;103214.00;;;;5006845;28;20209;-75
2024/01/27 01:06:49;;;;;;;5.22;1.50;;;6.10;64.70;8.00;103217.00;;;;5008424;28;20197;-75
2024/01/27 01:09:16;;;;;;;5.38;2.17;;;6.10;64.70;8.00;103218.00;;;;5013754;28;20201;-75
2024/01/27 01:11:43;;;;;;;4.20;1.67;;;6.10;64.80;8.00;103217.00;;;;5014256;28;20658;-75
2024/01/27 01:14:11;;;;;;;8.43;2.10;;;6.10;64.80;8.00;103211.00;;;;5014673;28;20193;-76
2024/01/27 01:16:39;;;;;;;3.28;1.63;;;6.10;64.70;7.90;103216.00;;;;5014317;28;20233;-76
2024/01/27 01:19:06;;;;;;;5.00;1.73;;;6.10;64.70;7.90;103215.00;;;;5013587;28;20288;-76
2024/01/27 01:21:33;;;;;;;4.00;2.00;;;6.00;64.70;7.90;103211.00;;;;5014211;28;20287;-76
2024/01/27 01:24:01;;;;;;;6.53;1.88;;;6.00;64.60;7.90;103213.00;;;;5013474;28;20201;-76
2024/01/27 01:26:28;;;;;;;7.60;2.42;;;6.00;64.60;7.90;103229.00;;;;5014077;28;20197;-75
2024/01/27 01:28:55;;;;;;;5.47;2.33;;;6.00;64.70;7.90;103227.00;;;;5013565;28;20204;-75
2024/01/27 01:31:22;;;;;;;4.13;2.10;;;6.00;64.80;7.90;103220.00;;;;5012554;28;20204;-75
2024/01/27 01:33:51;;;;;;;3.78;1.63;;;6.00;64.90;7.80;103223.00;;;;5003046;28;20686;-76
2024/01/27 01:36:18;;;;;;;5.57;2.30;;;5.90;64.80;7.80;103229.00;;;;4995460;28;20201;-76
2024/01/27 01:38:45;;;;;;;3.45;1.67;;;5.90;64.80;7.80;103223.00;;;;4998313;28;20196;-75
2024/01/27 01:41:13;;;;;;;6.75;2.78;;;5.90;64.80;7.80;103225.00;;;;5011542;28;20212;-75
2024/01/27 01:43:40;;;;;;;7.78;2.20;;;5.90;64.80;7.80;103222.00;;;;5013644;28;20232;-76
2024/01/27 01:46:07;;;;;;;6.43;2.30;;;5.90;65.60;7.80;103229.00;;;;5014030;28;20216;-75
2024/01/27 01:48:34;;;;;;;5.13;2.22;;;5.90;64.80;7.80;103215.00;;;;5013691;28;20208;-75
2024/01/27 01:51:04;;;;;;;5.47;1.55;;;5.90;64.70;7.80;103226.00;;;;5014053;28;20189;-76
2024/01/27 01:53:31;;;;;;;6.82;2.65;;;5.90;64.80;7.70;103232.00;;;;5013224;28;20201;-75
2024/01/27 01:55:58;;;;;;;4.95;2.17;;;5.80;64.70;7.70;103242.00;;;;5013641;28;20205;-75
2024/01/27 01:58:25;;;;;;;4.93;2.10;;;5.80;64.70;7.70;103224.00;;;;5013162;28;20209;-75
2024/01/27 02:00:52;;;;;;;6.05;2.00;;;5.80;64.70;7.70;103229.00;;;;5013707;28;20197;-75
2024/01/27 02:03:19;;;;;;;4.95;1.98;;;5.80;64.80;7.70;103242.00;;;;4996394;28;20316;-75
2024/01/27 02:05:46;;;;;;;4.53;1.98;;;5.80;64.80;7.70;103237.00;;;;4994764;28;20701;-75
2024/01/27 02:08:15;;;;;;;5.75;1.70;;;5.80;64.90;7.70;103231.00;;;;4993727;28;20197;-75
2024/01/27 02:10:42;;;;;;;7.03;2.50;;;5.70;64.90;7.60;103224.00;;;;4994087;28;20288;-75
2024/01/27 02:13:19;;;;;;;6.57;2.15;;;5.70;64.90;7.50;103235.00;;;;5008569;28;20692;-75
2024/01/27 02:15:46;;;;;;;4.50;1.92;;;5.70;65.00;7.70;103235.00;;;;5013232;28;20233;-75
2024/01/27 02:18:12;;;;;;;10.57;2.30;;;5.70;65.00;7.60;103231.00;;;;5013589;28;20209;-75
2024/01/27 02:20:40;;;;;;;4.07;1.73;;;5.70;64.90;7.60;103229.00;;;;5013581;28;20204;-75
2024/01/27 02:23:07;;;;;;;6.63;1.77;;;5.70;64.90;7.60;103235.00;;;;5011197;28;20251;-75
2024/01/27 02:25:36;;;;;;;4.45;1.95;;;5.70;64.80;7.60;103232.00;;;;5012408;28;20215;-75
2024/01/27 02:28:04;;;;;;;3.55;1.33;;;5.70;64.90;7.60;103233.00;;;;5012203;28;20197;-75
2024/01/27 02:30:31;;;;;;;4.65;1.48;;;5.60;64.90;7.60;103226.00;;;;5012685;28;20284;-75
2024/01/27 02:32:58;;;;;;;3.40;1.73;;;5.70;65.10;7.60;103224.00;;;;5012847;28;20296;-75
2024/01/27 02:35:26;;;;;;;5.72;2.22;;;5.60;65.00;7.60;103235.00;;;;5012758;28;20223;-75
2024/01/27 02:37:53;;;;;;;6.18;1.85;;;5.60;64.90;7.60;103236.00;;;;5007091;28;20617;-75
2024/01/27 02:40:20;;;;;;;4.60;2.20;;;5.60;64.90;7.50;103234.00;;;;4993204;28;20197;-75
2024/01/27 02:42:49;;;;;;;4.45;1.98;;;5.60;64.90;7.50;103231.00;;;;5009366;28;20225;-75
2024/01/27 02:45:16;;;;;;;7.75;1.98;;;5.60;64.90;7.50;103237.00;;;;5011668;28;20285;-75
2024/01/27 02:47:43;;;;;;;5.20;1.60;;;5.60;65.00;7.50;103246.00;;;;5003518;28;20668;-75
2024/01/27 02:50:11;;;;;;;7.20;2.15;;;5.60;64.90;7.50;103235.00;;;;5003797;28;20208;-75
2024/01/27 02:52:38;;;;;;;5.75;1.80;;;5.60;65.00;7.50;103247.00;;;;5012656;28;20204;-75
2024/01/27 02:55:06;;;;;;;3.88;1.60;;;5.50;65.00;7.50;103239.00;;;;5012582;28;20325;-75
2024/01/27 02:57:33;;;;;;;7.32;2.33;;;5.50;65.00;7.50;103229.00;;;;5009955;28;20307;-75
2024/01/27 03:00:02;;;;;;;3.95;1.83;;;5.50;65.00;7.40;103231.00;;;;5004937;28;20202;-75
2024/01/27 03:02:29;;;;;;;3.35;1.70;;;5.50;65.00;7.40;103238.00;;;;4992623;28;20319;-75
2024/01/27 03:04:56;;;;;;;4.10;2.00;;;5.50;65.00;7.40;103238.00;;;;4996012;28;20202;-75
2024/01/27 03:07:23;;;;;;;4.07;2.28;;;5.50;65.00;7.40;103240.00;;;;5004289;28;20284;-75
2024/01/27 03:09:50;;;;;;;4.15;2.05;;;5.50;65.00;7.40;103241.00;;;;5000229;28;20189;-75
2024/01/27 03:12:17;;;;;;;5.53;2.10;;;5.50;65.00;7.40;103239.00;;;;5012272;28;20207;-75
2024/01/27 03:14:46;;;;;;;5.00;2.13;;;5.50;65.00;7.40;103236.00;;;;5001293;28;20281;-75
2024/01/27 03:17:14;;;;;;;6.07;2.55;;;5.40;65.00;7.40;103244.00;;;;4999033;28;20200;-75
2024/01/27 03:19:41;;;;;;;8.82;2.70;;;5.50;65.10;7.40;103254.00;;;;5011491;28;20851;-75
2024/01/27 03:22:08;;;;;;;6.38;2.15;;;5.50;65.10;7.40;103242.00;;;;4999322;28;20201;-75
2024/01/27 03:24:35;;;;;;;4.65;1.77;;;5.40;65.10;7.30;103235.00;;;;5000828;28;20690;-75
2024/01/27 03:27:03;;;;;;;5.03;1.63;;;5.40;65.10;7.30;103226.00;;;;4992567;28;20206;-75
2024/01/27 03:29:30;;;;;;;6.35;2.00;;;5.40;65.10;7.30;103233.00;;;;4992372;28;20284;-75
2024/01/27 03:31:57;;;;;;;8.32;2.30;;;5.40;65.10;7.30;103246.00;;;;5008247;28;20211;-75
2024/01/27 03:34:27;;;;;;;4.57;2.13;;;5.40;65.80;7.30;103242.00;;;;5011512;28;20731;-75
2024/01/27 03:36:54;;;;;;;5.97;2.20;;;5.40;65.10;7.30;103237.00;;;;5004169;28;20256;-75
2024/01/27 03:39:21;;;;;;;5.10;1.83;;;5.40;65.20;7.30;103238.00;;;;4992296;28;20208;-75
2024/01/27 03:41:48;;;;;;;5.55;2.20;;;5.40;65.20;7.30;103239.00;;;;5001433;28;20205;-75
2024/01/27 03:44:15;;;;;;;6.85;2.38;;;5.30;65.20;7.30;103239.00;;;;5011639;28;20225;-75
2024/01/27 03:46:42;;;;;;;5.93;2.30;;;5.30;65.20;7.30;103241.00;;;;4997924;28;20202;-75
2024/01/27 03:49:09;;;;;;;3.13;1.67;;;5.30;65.20;7.30;103246.00;;;;4992290;28;20663;-75
2024/01/27 03:51:37;;;;;;;5.75;2.22;;;5.30;65.20;7.30;103241.00;;;;5003536;28;20211;-75
2024/01/27 03:54:05;;;;;;;7.13;1.92;;;5.30;65.30;7.30;103249.00;;;;5004322;28;20204;-75
2024/01/27 03:56:32;;;;;;;4.75;1.83;;;5.30;65.20;7.20;103245.00;;;;4995249;28;20217;-75
2024/01/27 03:58:59;;;;;;;4.38;1.95;;;5.30;65.20;7.20;103244.00;;;;4996750;28;20663;-75
2024/01/27 04:01:26;;;;;;;5.28;1.80;;;5.30;65.20;7.20;103251.00;;;;5011610;28;20220;-75
2024/01/27 04:03:53;;;;;;;6.43;2.50;;;5.30;65.20;7.20;103252.00;;;;5016038;28;20235;-75
2024/01/27 04:06:20;;;;;;;5.60;2.20;;;5.30;65.30;7.20;103248.00;;;;5012761;28;20839;-75
2024/01/27 04:08:48;;;;;;;4.90;1.77;;;5.30;65.40;7.20;103261.00;;;;4995948;28;20286;-75
2024/01/27 04:11:22;;;;;;;5.32;2.15;;;5.30;65.40;7.20;103253.00;;;;4995542;28;20208;-75
2024/01/27 04:13:51;;;;;;;5.60;1.85;;;5.20;65.30;7.20;103248.00;;;;4996185;28;20197;-75
2024/01/27 04:16:18;;;;;;;4.13;1.92;;;5.20;65.20;7.20;103255.00;;;;5012886;28;20702;-75
2024/01/27 04:18:45;;;;;;;4.90;2.10;;;5.20;65.30;7.20;103254.00;;;;5015735;28;20203;-75
2024/01/27 04:21:12;;;;;;;8.90;2.80;;;5.20;65.30;7.20;103253.00;;;;5012076;28;20205;-75
2024/01/27 04:23:39;;;;;;;9.57;3.42;;;5.20;65.30;7.20;103241.00;;;;5013450;28;20224;-75
2024/01/27 04:26:09;;;;;;;4.82;2.63;;;5.20;65.40;7.10;103248.00;;;;4994962;28;20212;-75
2024/01/27 04:28:36;;;;;;;7.43;2.80;;;5.20;65.30;7.10;103253.00;;;;4995619;28;20205;-75
2024/01/27 04:31:03;;;;;;;4.05;2.92;;;5.20;65.40;7.10;103246.00;;;;4997097;28;20677;-75
2024/01/27 04:33:30;;;;;;;4.40;2.60;;;5.20;66.00;7.10;103238.00;;;;5015048;28;20201;-75
2024/01/27 04:35:57;;;;;;;7.30;3.00;;;5.20;65.30;7.10;103243.00;;;;5014987;28;20216;-75
2024/01/27 04:38:24;;;;;;;8.18;3.65;;;5.20;65.40;7.10;103252.00;;;;5004667;28;20643;-75
2024/01/27 04:40:52;;;;;;;9.77;3.28;;;5.20;65.30;7.10;103261.00;;;;4999965;28;20204;-75
2024/01/27 04:43:21;;;;;;;6.53;3.33;;;5.20;65.40;7.10;103269.00;;;;5015198;28;20275;-75
2024/01/27 04:45:49;;;;;;;7.53;3.08;;;5.20;65.40;7.10;103269.00;;;;5014711;28;20193;-75
2024/01/27 04:48:16;;;;;;;6.35;2.85;;;5.20;65.40;7.10;103269.00;;;;5000012;28;20207;-75
2024/01/27 04:50:44;;;;;;;6.40;3.08;;;5.20;65.40;7.10;103268.00;;;;5012316;28;20208;-74
2024/01/27 04:53:11;;;;;;;7.53;3.00;;;5.10;65.30;7.10;103264.00;;;;5008703;28;20204;-75
2024/01/27 04:55:38;;;;;;;7.60;3.60;;;5.20;65.30;7.10;103270.00;;;;5008725;28;20205;-75
2024/01/27 04:58:07;;;;;;;6.80;3.30;;;5.20;65.20;7.10;103257.00;;;;5014606;28;20694;-75
2024/01/27 05:00:36;;;;;;;7.32;3.65;;;5.10;65.30;7.10;103266.00;;;;4997602;28;20680;-75
2024/01/27 05:03:07;;;;;;;5.93;3.20;;;5.10;65.30;7.10;103259.00;;;;4995478;28;20226;-74
2024/01/27 05:05:34;;;;;;;4.88;3.45;;;5.10;65.30;7.10;103262.00;;;;5000464;28;20239;-74
2024/01/27 05:08:01;;;;;;;5.70;3.47;;;5.10;65.20;7.10;103260.00;;;;5014914;28;20281;-74
2024/01/27 05:10:28;;;;;;;6.95;3.63;;;5.10;65.20;7.00;103263.00;;;;5000271;28;20762;-74
2024/01/27 05:12:56;;;;;;;6.18;3.50;;;5.10;65.30;7.10;103258.00;;;;5012618;28;20201;-74
2024/01/27 05:15:23;;;;;;;6.80;3.22;;;5.10;65.40;7.00;103273.00;;;;5013265;28;20232;-74
2024/01/27 05:17:51;;;;;;;5.47;3.50;;;5.10;65.30;7.00;103262.00;;;;5014162;28;20585;-74
2024/01/27 05:20:19;;;;;;;6.60;2.78;;;5.10;65.40;7.00;103254.00;;;;5013392;28;20197;-74
2024/01/27 05:22:46;;;;;;;8.25;3.78;;;5.10;65.40;7.00;103251.00;;;;5012522;28;20204;-74
2024/01/27 05:25:13;;;;;;;4.10;2.60;;;5.10;65.40;7.00;103253.00;;;;5007195;28;20200;-74
2024/01/27 05:27:40;;;;;;;4.50;2.85;;;5.00;65.30;7.00;103252.00;;;;4994796;28;20209;-74
2024/01/27 05:30:09;;;;;;;6.13;3.13;;;5.10;65.40;7.00;103243.00;;;;5004525;28;20211;-74
2024/01/27 05:32:36;;;;;;;5.82;3.22;;;5.00;65.30;7.00;103236.00;;;;4997039;28;20205;-74
2024/01/27 05:35:06;;;;;;;6.13;3.58;;;5.00;65.30;7.00;103239.00;;;;4994241;28;20252;-74
2024/01/27 05:37:33;;;;;;;6.43;3.72;;;5.00;65.40;7.00;103233.00;;;;4994549;28;20252;-74
2024/01/27 05:40:00;;;;;;;4.63;3.22;;;5.00;65.30;6.90;103225.00;;;;5004313;28;20207;-74
2024/01/27 05:42:27;;;;;;;10.18;3.08;;;5.00;65.30;6.90;103237.00;;;;5012445;28;20196;-74
2024/01/27 05:44:54;;;;;;;7.13;3.35;;;5.00;65.30;7.00;103234.00;;;;5013929;28;20228;-74
2024/01/27 05:47:21;;;;;;;7.97;3.30;;;5.00;65.30;7.00;103241.00;;;;5013493;28;20201;-74
2024/01/27 05:49:48;;;;;;;6.72;3.03;;;5.00;65.30;6.90;103244.00;;;;5013014;28;20198;-74
2024/01/27 05:52:17;;;;;;;7.25;3.25;;;5.00;65.30;6.90;103235.00;;;;5001338;28;20217;-74
2024/01/27 05:54:44;;;;;;;7.40;3.10;;;5.00;65.30;6.90;103243.00;;;;4994078;28;20197;-73
2024/01/27 05:57:11;;;;;;;6.28;3.03;;;4.90;65.30;6.90;103238.00;;;;5004965;28;20303;-74
2024/01/27 05:59:38;;;;;;;5.28;3.00;;;5.00;65.40;6.90;103235.00;;;;5013345;28;20200;-73
2024/01/27 06:02:05;;;;;;;6.20;3.28;;;4.90;65.30;6.90;103230.00;;;;5004638;28;20201;-73
2024/01/27 06:04:33;;;;;;;7.65;3.67;;;4.90;65.30;6.90;103232.00;;;;5000389;28;20222;-74
2024/01/27 06:07:00;;;;;;;6.18;3.28;;;4.90;65.30;6.90;103232.00;;;;5000408;28;20632;-73
2024/01/27 06:09:28;;;;;;;7.47;3.20;;;4.90;65.30;6.90;103235.00;;;;5008292;28;20292;-74
2024/01/27 06:11:55;;;;;;;5.93;3.03;;;4.90;65.30;6.90;103236.00;;;;5009315;28;20197;-74
2024/01/27 06:14:22;;;;;;;5.97;3.28;;;4.90;65.30;6.90;103236.00;;;;5011127;28;20640;-73
2024/01/27 06:16:51;;;;;;;5.65;3.17;;;4.90;65.30;6.90;103244.00;;;;5007000;28;20228;-73
2024/01/27 06:19:18;;;;;;;6.55;3.50;;;4.90;65.30;6.90;103238.00;;;;5008675;28;20294;-73
2024/01/27 06:21:45;;;;;;;8.43;4.00;;;4.90;65.40;6.80;103232.00;;;;5008709;28;20671;-73
2024/01/27 06:24:12;;;;;;;5.03;3.10;;;4.90;65.40;6.80;103231.00;;;;4993278;28;20256;-73
2024/01/27 06:26:40;;;;;;;7.57;3.67;;;4.90;65.40;6.80;103236.00;;;;4993361;28;20204;-73
2024/01/27 06:29:08;;;;;;;5.35;3.53;;;4.90;65.30;6.80;103236.00;;;;4993222;28;20198;-73
2024/01/27 06:31:34;;;;;;;8.73;3.92;;;4.90;65.40;6.80;103240.00;;;;5004934;28;20211;-73
2024/01/27 06:34:01;;;;;;;5.88;3.80;;;4.90;65.40;6.80;103243.00;;;;5003489;28;20594;-73
2024/01/27 06:36:28;;;;;;;7.05;3.45;;;4.80;65.30;6.80;103248.00;;;;5011139;28;20203;-73
2024/01/27 06:38:56;;;;;;;7.30;3.85;;;4.80;65.30;6.80;103240.00;;;;5010219;28;20201;-73
2024/01/27 06:41:23;;;;;;;5.28;3.50;;;4.90;65.40;6.80;103237.00;;;;5000133;28;20548;-73
2024/01/27 06:43:53;;;;;;;6.18;3.55;;;4.80;65.30;6.80;103235.00;;;;5000346;28;20227;-73
2024/01/27 06:46:20;;;;;;;7.82;4.13;;;4.80;65.40;6.80;103236.00;;;;5003662;28;20288;-73
2024/01/27 06:48:48;;;;;;;5.32;3.72;;;4.80;65.40;6.80;103237.00;;;;5000456;28;20200;-73
2024/01/27 06:51:17;;;;;;;10.02;3.97;;;4.80;65.50;6.80;103235.00;;;;5002604;28;20201;-73
2024/01/27 06:53:49;;;;;;;8.38;4.43;;;4.80;65.40;6.80;103241.00;;;;4993831;28;20714;-73
2024/01/27 06:56:17;;;;;;;6.03;3.90;;;4.80;65.40;6.80;103255.00;;;;5008963;28;20250;-73
2024/01/27 06:58:44;;;;;;;6.85;3.67;;;4.80;65.40;6.80;103253.00;;;;4999071;28;20217;-72
2024/01/27 07:01:14;;;;;;;5.05;3.35;;;4.80;65.40;6.70;103260.00;;;;4997820;28;20197;-73
2024/01/27 07:03:41;;;;;;;7.50;4.78;;;4.80;65.50;6.80;103261.00;;;;5002673;28;20694;-73
2024/01/27 07:06:08;;;;;;;6.95;4.05;;;4.80;65.50;6.80;103258.00;;;;5010920;28;20196;-73
2024/01/27 07:08:36;;;;;;;7.78;3.97;;;4.80;65.40;6.80;103265.00;;;;5010330;28;20200;-73
2024/01/27 07:11:09;;;;;;;7.65;5.13;;;4.80;66.20;6.80;103265.00;;;;5005724;28;20197;-72
2024/01/27 07:13:39;;;;;;;13.60;5.80;;;4.80;65.50;6.80;103261.00;;;;5002534;28;20277;-72
2024/01/27 07:16:07;;;;;;;8.65;5.47;;;4.80;65.50;6.80;103272.00;;;;5003257;28;20785;-73
2024/01/27 07:18:37;;;;;;;8.63;4.80;;;4.80;65.50;6.80;103277.00;;;;5002838;28;20280;-72
2024/01/27 07:21:05;;;;;;;13.77;5.45;;;4.80;65.40;6.80;103276.00;;;;5007328;28;20200;-72
2024/01/27 07:23:32;;;;;;;6.97;5.15;;;4.80;65.40;6.80;103280.00;;;;5003957;28;20678;-72
2024/01/27 07:26:03;;;;;;;6.30;4.82;;;4.80;65.40;6.80;103285.00;;;;5005202;28;20283;-72
2024/01/27 07:28:30;;;;;;;10.05;5.28;;;4.80;65.50;6.80;103284.00;;;;5008365;28;20231;-73
2024/01/27 07:30:57;;;;;;;8.88;6.00;;;4.80;65.50;6.80;103286.00;;;;5012300;28;20197;-73
2024/01/27 07:33:24;;;;;;;7.18;5.43;;;4.80;65.50;6.80;103288.00;;;;5000204;28;20660;-72
2024/01/27 07:35:53;;;;;;;9.90;5.10;;;4.80;65.50;6.80;103296.00;;;;5007729;28;20248;-73
2024/01/27 07:38:21;;;;;;;7.50;4.72;;;4.80;65.50;6.80;103295.00;;;;5011723;28;20636;-73
2024/01/27 07:40:52;;;;;;;6.72;4.75;;;4.80;65.60;6.80;103294.00;;;;5003252;28;20201;-72
2024/01/27 07:43:20;;;;;;;11.13;5.80;;;4.80;65.60;6.80;103303.00;;;;4992696;28;20240;-73
2024/01/27 07:45:47;;;;;;;8.20;5.13;;;4.80;65.60;6.80;103289.00;;;;5001456;28;20629;-73
2024/01/27 07:48:16;;;;;;;9.68;5.25;;;4.80;65.70;6.80;103289.00;;;;5007615;28;20208;-73
2024/01/27 07:50:48;;;;;;;7.78;5.45;;;4.80;65.70;6.80;103301.00;;;;4999010;28;20201;-73
2024/01/27 07:53:20;;;;;;;8.98;4.88;;;4.80;65.70;6.80;103304.00;;;;5009897;28;20204;-73
2024/01/27 07:55:48;;;;;;;9.13;5.32;;;4.80;65.80;6.90;103303.00;;;;5011248;28;20204;-73
2024/01/27 07:58:21;;;;;;;9.55;5.00;;;4.90;66.00;6.90;103305.00;;;;5011759;28;20197;-73
2024/01/27 08:00:48;;;;;;;9.20;5.35;;;4.90;65.90;6.90;103309.00;;;;5000578;28;20240;-73
2024/01/27 08:03:16;;;;;;;11.93;6.10;;;4.90;65.90;6.90;103311.00;;;;5007850;28;20549;-73
2024/01/27 08:05:43;;;;;;;8.13;5.60;;;4.90;65.90;7.00;103315.00;;;;5002931;28;20710;-73
2024/01/27 08:08:10;;;;;;;9.45;4.95;;;4.90;65.90;7.00;103306.00;;;;5001378;28;20197;-72
2024/01/27 08:10:40;;;;;;;9.57;5.55;;;4.90;66.00;7.00;103301.00;;;;5008577;28;20194;-73
2024/01/27 08:13:07;;;;;;;8.02;5.55;;;5.00;66.20;7.10;103304.00;;;;5011537;28;20216;-72
2024/01/27 08:15:34;;;;;;;10.05;5.97;;;5.00;66.20;7.10;103301.00;;;;5011181;28;20687;-72
2024/01/27 08:18:01;;;;;;;6.80;4.85;;;5.10;66.20;7.10;103292.00;;;;5006319;28;20199;-73
2024/01/27 08:20:28;;;;;;;10.95;5.63;;;5.10;66.20;7.20;103289.00;;;;5006925;28;20193;-72
2024/01/27 08:22:55;;;;;;;8.13;5.60;;;5.10;66.20;7.20;103307.00;;;;5007879;28;20193;-72
2024/01/27 08:25:24;;;;;;;8.18;5.10;;;5.20;66.30;7.20;103302.00;;;;5002574;28;20223;-72
2024/01/27 08:27:54;;;;;;;10.88;5.15;;;5.20;66.40;7.30;103305.00;;;;5007692;28;20229;-73
2024/01/27 08:30:22;;;;;;;8.45;5.32;;;5.30;66.50;7.30;103299.00;;;;5005331;28;20204;-72
2024/01/27 08:32:51;;;;;;;8.60;5.40;;;5.30;66.50;7.40;103303.00;;;;5008706;28;20197;-73
2024/01/27 08:35:19;;;;;;;6.43;4.97;;;5.30;66.40;7.40;103303.00;;;;5005283;28;20240;-73
2024/01/27 08:37:48;;;;;;;7.45;5.70;;;5.40;66.40;7.50;103308.00;;;;4996690;28;20197;-73
2024/01/27 08:40:17;;;;;;;11.95;5.47;;;5.40;66.50;7.50;103300.00;;;;4994575;28;20622;-73
2024/01/27 08:42:48;;;;;;;8.27;5.22;;;5.50;66.60;7.60;103290.00;;;;5006378;28;20581;-73
2024/01/27 08:45:20;;;;;;;11.13;5.20;;;5.50;66.60;7.60;103291.00;;;;4997934;28;20682;-73
2024/01/27 08:47:48;;;;;;;8.90;4.95;;;5.60;66.60;7.70;103290.00;;;;5011202;28;20255;-73
2024/01/27 08:50:18;;;;;;;8.50;5.68;;;5.60;66.60;7.70;103290.00;;;;5001133;28;20239;-73
2024/01/27 08:52:45;;;;;;;6.65;4.95;;;5.60;66.60;7.80;103295.00;;;;5000344;28;20201;-73
2024/01/27 08:55:14;;;;;;;7.72;5.15;;;5.70;66.60;7.80;103303.00;;;;4994840;28;20217;-73
2024/01/27 08:57:42;;;;;;;7.75;4.30;;;5.80;66.60;7.90;103309.00;;;;5011277;28;20205;-73
2024/01/27 09:00:12;;;;;;;10.50;5.63;;;5.80;66.60;7.90;103316.00;;;;5004033;28;20205;-72
2024/01/27 09:02:40;;;;;;;7.80;5.15;;;5.90;66.70;8.00;103321.00;;;;5005895;28;20197;-73
2024/01/27 09:05:08;;;;;;;10.18;5.30;;;5.90;66.70;8.10;103317.00;;;;5005381;28;20252;-73
2024/01/27 09:07:35;;;;;;;8.77;4.63;;;6.00;66.70;8.10;103311.00;;;;5013843;28;20204;-73
2024/01/27 09:10:02;;;;;;;6.13;4.93;;;6.00;66.70;8.20;103318.00;;;;5010304;28;20203;-73
2024/01/27 09:12:29;;;;;;;8.15;5.18;;;6.10;66.80;8.20;103313.00;;;;5009396;28;20189;-73
2024/01/27 09:14:56;;;;;;;7.80;5.38;;;6.10;66.90;8.30;103323.00;;;;5004857;28;20223;-73
2024/01/27 09:17:24;;;;;;;8.10;5.43;;;6.20;67.00;8.40;103331.00;;;;5013239;28;20217;-73
2024/01/27 09:19:52;;;;;;;9.57;5.65;;;6.30;67.10;8.40;103338.00;;;;5005736;28;20204;-73
2024/01/27 09:22:19;;;;;;;10.00;5.85;;;6.40;67.10;8.50;103339.00;;;;5011035;28;20738;-73
2024/01/27 09:24:46;;;;;;;10.07;6.55;;;6.40;67.10;8.50;103339.00;;;;4996886;28;20605;-73
2024/01/27 09:27:13;;;;;;;8.60;6.38;;;6.50;67.00;8.60;103335.00;;;;4997129;28;20206;-73
2024/01/27 09:29:40;;;;;;;11.10;5.60;;;6.60;67.10;8.60;103336.00;;;;5004146;28;20247;-73
2024/01/27 09:32:07;;;;;;;11.73;6.05;;;6.60;67.10;8.70;103342.00;;;;5002302;28;20200;-73
2024/01/27 09:34:34;;;;;;;9.13;5.75;;;6.70;67.10;8.80;103344.00;;;;5012006;28;20217;-73
2024/01/27 09:37:03;;;;;;;9.05;5.53;;;6.70;67.10;8.80;103352.00;;;;5012183;28;20196;-73
2024/01/27 09:39:30;;;;;;;9.95;5.70;;;6.80;67.20;8.90;103356.00;;;;5010717;28;20197;-73
2024/01/27 09:41:59;;;;;;;8.82;5.65;;;6.90;67.20;8.90;103357.00;;;;4999144;28;20686;-73
2024/01/27 09:44:27;;;;;;;8.27;5.78;;;6.90;67.10;9.00;103358.00;;;;5011572;28;20201;-74
2024/01/27 09:46:55;;;;;;;8.27;5.78;;;7.00;67.20;9.00;103361.00;;;;4996069;28;20312;-73
2024/01/27 09:49:23;;;;;;;8.73;5.40;;;7.00;67.10;9.00;103367.00;;;;4995706;28;20228;-74
2024/01/27 09:51:50;;;;;;;9.20;5.20;;;7.10;67.10;9.10;103366.00;;;;4999597;28;20698;-74
2024/01/27 09:54:19;;;;;;;9.55;5.85;;;7.20;67.20;9.10;103374.00;;;;5001498;28;20204;-74
2024/01/27 09:56:48;;;;;;;10.50;6.00;;;7.20;67.20;9.20;103376.00;;;;5010858;28;20211;-74
2024/01/27 09:59:18;;;;;;;7.75;5.40;;;7.30;67.20;9.30;103376.00;;;;5006645;28;20228;-74
2024/01/27 10:01:47;;;;;;;10.32;5.63;;;7.30;67.90;9.30;103392.00;;;;5006309;28;20667;-74
2024/01/27 10:04:15;;;;;;;8.50;5.22;;;7.40;67.20;9.40;103408.00;;;;5006712;28;20548;-74
2024/01/27 10:06:42;;;;;;;8.15;5.25;;;7.50;67.30;9.50;103403.00;;;;5000901;28;20193;-74
2024/01/27 10:09:09;;;;;;;7.80;5.93;;;7.50;67.30;9.50;103393.00;;;;5007642;28;20205;-74
2024/01/27 10:11:42;;;;;;;9.40;5.60;;;7.60;67.30;9.50;103386.00;;;;5000242;28;20201;-74
2024/01/27 10:14:09;;;;;;;9.98;5.65;;;7.70;67.40;9.60;103387.00;;;;5012670;28;20581;-74
2024/01/27 10:16:42;;;;;;;7.30;5.78;;;7.70;68.00;9.60;103383.00;;;;5002856;28;20220;-75
2024/01/27 10:19:17;;;;;;;10.55;5.63;;;7.80;67.20;9.70;103384.00;;;;5003905;28;20201;-75
2024/01/27 10:21:44;;;;;;;8.50;5.60;;;7.80;67.20;9.80;103385.00;;;;4998890;28;20196;-75
2024/01/27 10:24:12;;;;;;;9.95;5.35;;;7.90;67.20;9.80;103382.00;;;;4996066;28;20585;-75
2024/01/27 10:26:40;;;;;;;8.05;5.53;;;7.90;67.10;9.90;103389.00;;;;4993445;28;20736;-75
2024/01/27 10:29:07;;;;;;;9.18;5.90;;;8.00;67.20;9.90;103394.00;;;;5004642;28;20201;-75
2024/01/27 10:31:35;;;;;;;9.73;5.85;;;8.10;67.20;10.00;103396.00;;;;5000778;28;20279;-74
2024/01/27 10:34:04;;;;;;;9.65;5.35;;;8.10;67.10;10.00;103396.00;;;;4993299;28;20221;-75
2024/01/27 10:36:41;;;;;;;11.25;6.07;;;8.20;67.10;10.00;103411.00;;;;5003718;28;20205;-76
2024/01/27 10:39:20;;;;;;;7.55;5.05;;;8.30;67.10;10.10;103410.00;;;;4999718;28;20198;-75
2024/01/27 10:41:50;;;;;;;7.75;5.20;;;8.30;67.10;10.20;103410.00;;;;4998632;28;20228;-75
2024/01/27 10:44:19;;;;;;;9.98;5.55;;;8.40;67.10;10.30;103410.00;;;;4994170;28;20208;-75
2024/01/27 10:46:48;;;;;;;8.77;5.38;;;8.50;67.10;10.30;103410.00;;;;4998927;28;20283;-76
2024/01/27 10:49:17;;;;;;;10.32;5.40;;;8.50;67.00;10.40;103397.00;;;;5002733;28;20201;-75
2024/01/27 10:51:51;;;;;;;9.30;5.30;;;8.60;67.10;10.50;103395.00;;;;4995768;28;20202;-76
2024/01/27 10:54:26;;;;;;;8.82;4.53;;;8.70;67.10;10.50;103389.00;;;;5001615;28;20219;-76
2024/01/27 10:56:58;;;;;;;9.70;4.97;;;8.80;67.10;10.60;103380.00;;;;4996050;28;20232;-76
2024/01/27 10:59:28;;;;;;;9.05;5.03;;;8.80;67.00;10.70;103377.00;;;;5008190;28;20223;-76
2024/01/27 11:01:57;;;;;;;10.70;5.00;;;8.90;67.00;10.80;103380.00;;;;4999975;28;20236;-76